sensor_id;sensor_type;location;lat;lon;timestamp;P1;durP1;ratioP1;P2;durP2;ratioP2
64037;SDS011;54641;50.168;8.492;2022-07-01T00:00:38;1.50;;;1.30;;
64037;SDS011;54641;50.168;8.492;2022-07-01T00:03:08;2.00;;;1.40;;
64037;SDS011;54641;50.168;8.492;2022-07-01T00:05:39;2.40;;;1.30;;
64037;SDS011;54641;50.168;8.492;2022-07-01T00:08:10;1.50;;;1.30;;
64037;SDS011;54641;50.168;8.492;2022-07-01T00:10:40;2.00;;;1.20;;
64037;SDS011;54641;50.168;8.492;2022-07-01T00:13:11;1.60;;;1.40;;
64037;SDS011;54641;50.168;8.492;2022-07-01T00:15:41;2.50;;;1.60;;
64037;SDS011;54641;50.168;8.492;2022-07-01T00:18:11;1.70;;;1.40;;
64037;SDS011;54641;50.168;8.492;2022-07-01T00:20:42;1.90;;;1.50;;
64037;SDS011;54641;50.168;8.492;2022-07-01T00:23:13;1.90;;;1.70;;
64037;SDS011;54641;50.168;8.492;2022-07-01T00:25:44;2.80;;;1.60;;
64037;SDS011;54641;50.168;8.492;2022-07-01T00:28:15;1.40;;;1.30;;
64037;SDS011;54641;50.168;8.492;2022-07-01T00:30:45;2.30;;;1.40;;
64037;SDS011;54641;50.168;8.492;2022-07-01T00:33:16;2.80;;;1.40;;
64037;SDS011;54641;50.168;8.492;2022-07-01T00:35:46;3.50;;;1.90;;
64037;SDS011;54641;50.168;8.492;2022-07-01T00:38:17;3.10;;;1.80;;
64037;SDS011;54641;50.168;8.492;2022-07-01T00:40:52;2.40;;;1.50;;
64037;SDS011;54641;50.168;8.492;2022-07-01T00:43:22;1.90;;;1.30;;
64037;SDS011;54641;50.168;8.492;2022-07-01T00:46:13;2.10;;;1.20;;
64037;SDS011;54641;50.168;8.492;2022-07-01T00:48:49;2.60;;;1.60;;
64037;SDS011;54641;50.168;8.492;2022-07-01T00:51:20;2.70;;;1.80;;
64037;SDS011;54641;50.168;8.492;2022-07-01T00:53:51;2.80;;;1.70;;
64037;SDS011;54641;50.168;8.492;2022-07-01T00:56:22;2.50;;;1.90;;
64037;SDS011;54641;50.168;8.492;2022-07-01T00:58:53;2.50;;;1.60;;
64037;SDS011;54641;50.168;8.492;2022-07-01T01:01:25;2.10;;;1.40;;
64037;SDS011;54641;50.168;8.492;2022-07-01T01:03:55;3.30;;;1.40;;
64037;SDS011;54641;50.168;8.492;2022-07-01T01:06:26;3.70;;;1.70;;
64037;SDS011;54641;50.168;8.492;2022-07-01T01:08:56;3.80;;;2.10;;
64037;SDS011;54641;50.168;8.492;2022-07-01T01:11:27;3.30;;;2.00;;
64037;SDS011;54641;50.168;8.492;2022-07-01T01:13:58;3.10;;;2.40;;
64037;SDS011;54641;50.168;8.492;2022-07-01T01:16:28;3.70;;;2.40;;
64037;SDS011;54641;50.168;8.492;2022-07-01T01:18:59;2.80;;;1.90;;
64037;SDS011;54641;50.168;8.492;2022-07-01T01:21:29;3.60;;;1.90;;
64037;SDS011;54641;50.168;8.492;2022-07-01T01:24:00;3.20;;;2.70;;
64037;SDS011;54641;50.168;8.492;2022-07-01T01:26:31;3.90;;;2.50;;
64037;SDS011;54641;50.168;8.492;2022-07-01T01:29:01;3.50;;;2.50;;
64037;SDS011;54641;50.168;8.492;2022-07-01T01:31:34;4.80;;;2.50;;
64037;SDS011;54641;50.168;8.492;2022-07-01T01:34:05;4.60;;;2.30;;
64037;SDS011;54641;50.168;8.492;2022-07-01T01:36:35;2.90;;;2.10;;
64037;SDS011;54641;50.168;8.492;2022-07-01T01:39:06;4.00;;;2.70;;
64037;SDS011;54641;50.168;8.492;2022-07-01T01:41:38;3.20;;;2.60;;
64037;SDS011;54641;50.168;8.492;2022-07-01T01:44:09;3.70;;;2.80;;
64037;SDS011;54641;50.168;8.492;2022-07-01T01:46:39;3.90;;;2.70;;
64037;SDS011;54641;50.168;8.492;2022-07-01T01:49:10;4.50;;;2.60;;
64037;SDS011;54641;50.168;8.492;2022-07-01T01:51:41;3.70;;;2.50;;
64037;SDS011;54641;50.168;8.492;2022-07-01T01:54:11;5.50;;;3.20;;
64037;SDS011;54641;50.168;8.492;2022-07-01T01:56:41;4.50;;;2.90;;
64037;SDS011;54641;50.168;8.492;2022-07-01T01:59:12;4.60;;;2.70;;
64037;SDS011;54641;50.168;8.492;2022-07-01T02:01:42;4.20;;;2.70;;
64037;SDS011;54641;50.168;8.492;2022-07-01T02:04:13;3.70;;;2.70;;
64037;SDS011;54641;50.168;8.492;2022-07-01T02:06:43;3.90;;;2.80;;
64037;SDS011;54641;50.168;8.492;2022-07-01T02:09:14;4.70;;;2.70;;
64037;SDS011;54641;50.168;8.492;2022-07-01T02:11:45;5.20;;;2.70;;
64037;SDS011;54641;50.168;8.492;2022-07-01T02:14:15;3.50;;;2.50;;
64037;SDS011;54641;50.168;8.492;2022-07-01T02:16:46;4.70;;;2.90;;
64037;SDS011;54641;50.168;8.492;2022-07-01T02:19:16;3.70;;;2.40;;
64037;SDS011;54641;50.168;8.492;2022-07-01T02:21:47;5.20;;;2.90;;
64037;SDS011;54641;50.168;8.492;2022-07-01T02:24:18;3.20;;;2.30;;
64037;SDS011;54641;50.168;8.492;2022-07-01T02:26:49;3.00;;;2.30;;
64037;SDS011;54641;50.168;8.492;2022-07-01T02:29:19;4.20;;;2.60;;
64037;SDS011;54641;50.168;8.492;2022-07-01T02:31:50;4.00;;;2.90;;
64037;SDS011;54641;50.168;8.492;2022-07-01T02:34:20;3.50;;;2.10;;
64037;SDS011;54641;50.168;8.492;2022-07-01T02:36:51;3.30;;;2.30;;
64037;SDS011;54641;50.168;8.492;2022-07-01T02:39:23;3.70;;;2.10;;
64037;SDS011;54641;50.168;8.492;2022-07-01T02:41:53;2.80;;;2.00;;
64037;SDS011;54641;50.168;8.492;2022-07-01T02:44:41;3.40;;;2.30;;
64037;SDS011;54641;50.168;8.492;2022-07-01T02:47:12;3.50;;;2.60;;
64037;SDS011;54641;50.168;8.492;2022-07-01T02:49:42;3.00;;;1.90;;
64037;SDS011;54641;50.168;8.492;2022-07-01T02:52:12;3.50;;;2.00;;
64037;SDS011;54641;50.168;8.492;2022-07-01T02:54:44;4.50;;;2.30;;
64037;SDS011;54641;50.168;8.492;2022-07-01T02:57:15;6.50;;;2.60;;
64037;SDS011;54641;50.168;8.492;2022-07-01T02:59:45;3.40;;;2.00;;
64037;SDS011;54641;50.168;8.492;2022-07-01T03:02:15;3.30;;;2.30;;
64037;SDS011;54641;50.168;8.492;2022-07-01T03:04:46;3.90;;;1.80;;
64037;SDS011;54641;50.168;8.492;2022-07-01T03:07:17;3.10;;;1.90;;
64037;SDS011;54641;50.168;8.492;2022-07-01T03:09:48;3.60;;;1.90;;
64037;SDS011;54641;50.168;8.492;2022-07-01T03:12:18;3.20;;;2.10;;
64037;SDS011;54641;50.168;8.492;2022-07-01T03:14:57;2.30;;;1.50;;
64037;SDS011;54641;50.168;8.492;2022-07-01T03:17:29;2.60;;;1.70;;
64037;SDS011;54641;50.168;8.492;2022-07-01T03:20:06;2.70;;;1.60;;
64037;SDS011;54641;50.168;8.492;2022-07-01T03:22:38;2.50;;;1.60;;
64037;SDS011;54641;50.168;8.492;2022-07-01T03:25:09;2.30;;;1.50;;
64037;SDS011;54641;50.168;8.492;2022-07-01T03:27:40;2.10;;;1.00;;
64037;SDS011;54641;50.168;8.492;2022-07-01T03:30:13;2.30;;;1.10;;
64037;SDS011;54641;50.168;8.492;2022-07-01T03:32:46;3.40;;;1.30;;
64037;SDS011;54641;50.168;8.492;2022-07-01T03:35:16;3.90;;;1.40;;
64037;SDS011;54641;50.168;8.492;2022-07-01T03:38:07;2.30;;;1.50;;
64037;SDS011;54641;50.168;8.492;2022-07-01T03:40:38;2.20;;;1.20;;
64037;SDS011;54641;50.168;8.492;2022-07-01T03:43:09;2.20;;;1.50;;
64037;SDS011;54641;50.168;8.492;2022-07-01T03:45:42;1.70;;;1.10;;
64037;SDS011;54641;50.168;8.492;2022-07-01T03:48:13;3.50;;;1.20;;
64037;SDS011;54641;50.168;8.492;2022-07-01T03:50:44;2.40;;;1.40;;
64037;SDS011;54641;50.168;8.492;2022-07-01T03:53:14;2.10;;;1.30;;
64037;SDS011;54641;50.168;8.492;2022-07-01T03:56:03;1.90;;;1.20;;
64037;SDS011;54641;50.168;8.492;2022-07-01T03:58:34;3.20;;;1.60;;
64037;SDS011;54641;50.168;8.492;2022-07-01T04:01:04;2.50;;;1.50;;
64037;SDS011;54641;50.168;8.492;2022-07-01T04:03:34;2.80;;;1.70;;
64037;SDS011;54641;50.168;8.492;2022-07-01T04:06:05;3.50;;;1.70;;
64037;SDS011;54641;50.168;8.492;2022-07-01T04:08:36;3.10;;;1.90;;
64037;SDS011;54641;50.168;8.492;2022-07-01T04:11:07;3.60;;;1.90;;
64037;SDS011;54641;50.168;8.492;2022-07-01T04:13:37;2.90;;;1.70;;
64037;SDS011;54641;50.168;8.492;2022-07-01T04:16:07;3.60;;;1.80;;
64037;SDS011;54641;50.168;8.492;2022-07-01T04:18:38;3.50;;;2.10;;
64037;SDS011;54641;50.168;8.492;2022-07-01T04:21:09;2.40;;;1.50;;
64037;SDS011;54641;50.168;8.492;2022-07-01T04:24:04;3.90;;;1.50;;
64037;SDS011;54641;50.168;8.492;2022-07-01T04:26:36;2.90;;;1.80;;
64037;SDS011;54641;50.168;8.492;2022-07-01T04:29:06;2.40;;;1.60;;
64037;SDS011;54641;50.168;8.492;2022-07-01T04:31:37;2.70;;;1.60;;
64037;SDS011;54641;50.168;8.492;2022-07-01T04:34:08;3.10;;;1.60;;
64037;SDS011;54641;50.168;8.492;2022-07-01T04:36:39;3.70;;;1.90;;
64037;SDS011;54641;50.168;8.492;2022-07-01T04:39:09;4.70;;;2.30;;
64037;SDS011;54641;50.168;8.492;2022-07-01T04:41:40;3.60;;;2.20;;
64037;SDS011;54641;50.168;8.492;2022-07-01T04:44:29;2.90;;;1.50;;
64037;SDS011;54641;50.168;8.492;2022-07-01T04:47:08;2.00;;;1.30;;
64037;SDS011;54641;50.168;8.492;2022-07-01T04:49:38;2.10;;;1.60;;
64037;SDS011;54641;50.168;8.492;2022-07-01T04:52:09;2.20;;;1.50;;
64037;SDS011;54641;50.168;8.492;2022-07-01T04:54:40;3.00;;;1.60;;
64037;SDS011;54641;50.168;8.492;2022-07-01T04:57:10;1.90;;;1.20;;
64037;SDS011;54641;50.168;8.492;2022-07-01T04:59:41;1.60;;;1.10;;
64037;SDS011;54641;50.168;8.492;2022-07-01T05:02:11;1.60;;;1.10;;
64037;SDS011;54641;50.168;8.492;2022-07-01T05:04:42;1.70;;;1.20;;
64037;SDS011;54641;50.168;8.492;2022-07-01T05:07:12;2.60;;;1.50;;
64037;SDS011;54641;50.168;8.492;2022-07-01T05:09:56;2.30;;;1.10;;
64037;SDS011;54641;50.168;8.492;2022-07-01T05:12:27;2.40;;;1.10;;
64037;SDS011;54641;50.168;8.492;2022-07-01T05:14:58;1.90;;;1.20;;
64037;SDS011;54641;50.168;8.492;2022-07-01T05:17:28;1.20;;;0.90;;
64037;SDS011;54641;50.168;8.492;2022-07-01T05:20:13;2.70;;;1.20;;
64037;SDS011;54641;50.168;8.492;2022-07-01T05:23:01;1.50;;;1.00;;
64037;SDS011;54641;50.168;8.492;2022-07-01T05:25:32;2.70;;;1.00;;
64037;SDS011;54641;50.168;8.492;2022-07-01T05:28:02;1.80;;;1.00;;
64037;SDS011;54641;50.168;8.492;2022-07-01T05:30:33;1.70;;;1.10;;
64037;SDS011;54641;50.168;8.492;2022-07-01T05:33:04;2.20;;;1.20;;
64037;SDS011;54641;50.168;8.492;2022-07-01T05:35:34;4.00;;;2.00;;
64037;SDS011;54641;50.168;8.492;2022-07-01T05:38:05;1.70;;;0.90;;
64037;SDS011;54641;50.168;8.492;2022-07-01T05:40:35;1.60;;;1.10;;
64037;SDS011;54641;50.168;8.492;2022-07-01T05:43:06;2.80;;;1.10;;
64037;SDS011;54641;50.168;8.492;2022-07-01T05:45:36;1.50;;;1.00;;
64037;SDS011;54641;50.168;8.492;2022-07-01T05:48:07;1.40;;;1.00;;
64037;SDS011;54641;50.168;8.492;2022-07-01T05:50:37;2.20;;;1.20;;
64037;SDS011;54641;50.168;8.492;2022-07-01T05:53:09;1.30;;;0.80;;
64037;SDS011;54641;50.168;8.492;2022-07-01T05:55:39;2.80;;;1.00;;
64037;SDS011;54641;50.168;8.492;2022-07-01T05:58:11;1.40;;;0.90;;
64037;SDS011;54641;50.168;8.492;2022-07-01T06:00:42;2.20;;;0.90;;
64037;SDS011;54641;50.168;8.492;2022-07-01T06:03:13;1.50;;;1.20;;
64037;SDS011;54641;50.168;8.492;2022-07-01T06:05:44;1.20;;;0.90;;
64037;SDS011;54641;50.168;8.492;2022-07-01T06:08:14;2.10;;;1.00;;
64037;SDS011;54641;50.168;8.492;2022-07-01T06:10:45;2.50;;;1.10;;
64037;SDS011;54641;50.168;8.492;2022-07-01T06:13:16;2.40;;;0.90;;
64037;SDS011;54641;50.168;8.492;2022-07-01T06:15:46;2.20;;;1.00;;
64037;SDS011;54641;50.168;8.492;2022-07-01T06:18:17;2.50;;;1.20;;
64037;SDS011;54641;50.168;8.492;2022-07-01T06:20:47;2.10;;;0.90;;
64037;SDS011;54641;50.168;8.492;2022-07-01T06:23:18;1.80;;;0.90;;
64037;SDS011;54641;50.168;8.492;2022-07-01T06:25:48;2.30;;;0.90;;
64037;SDS011;54641;50.168;8.492;2022-07-01T06:28:18;2.80;;;1.10;;
64037;SDS011;54641;50.168;8.492;2022-07-01T06:30:49;1.10;;;1.00;;
64037;SDS011;54641;50.168;8.492;2022-07-01T06:33:22;2.10;;;1.10;;
64037;SDS011;54641;50.168;8.492;2022-07-01T06:35:54;1.20;;;1.10;;
64037;SDS011;54641;50.168;8.492;2022-07-01T06:38:25;2.20;;;1.00;;
64037;SDS011;54641;50.168;8.492;2022-07-01T06:40:57;3.00;;;1.10;;
64037;SDS011;54641;50.168;8.492;2022-07-01T06:43:45;3.10;;;1.00;;
64037;SDS011;54641;50.168;8.492;2022-07-01T06:46:16;2.30;;;1.00;;
64037;SDS011;54641;50.168;8.492;2022-07-01T06:48:46;3.40;;;1.40;;
64037;SDS011;54641;50.168;8.492;2022-07-01T06:51:17;1.80;;;1.10;;
64037;SDS011;54641;50.168;8.492;2022-07-01T06:53:48;1.90;;;1.30;;
64037;SDS011;54641;50.168;8.492;2022-07-01T06:56:18;2.50;;;1.40;;
64037;SDS011;54641;50.168;8.492;2022-07-01T06:58:49;3.10;;;1.30;;
64037;SDS011;54641;50.168;8.492;2022-07-01T07:01:19;3.60;;;1.40;;
64037;SDS011;54641;50.168;8.492;2022-07-01T07:03:50;3.00;;;1.20;;
64037;SDS011;54641;50.168;8.492;2022-07-01T07:06:20;3.20;;;1.20;;
64037;SDS011;54641;50.168;8.492;2022-07-01T07:08:51;3.60;;;1.50;;
64037;SDS011;54641;50.168;8.492;2022-07-01T07:11:21;4.40;;;1.50;;
64037;SDS011;54641;50.168;8.492;2022-07-01T07:13:52;3.60;;;1.30;;
64037;SDS011;54641;50.168;8.492;2022-07-01T07:16:26;2.30;;;1.30;;
64037;SDS011;54641;50.168;8.492;2022-07-01T07:18:56;3.70;;;1.40;;
64037;SDS011;54641;50.168;8.492;2022-07-01T07:21:26;2.70;;;1.30;;
64037;SDS011;54641;50.168;8.492;2022-07-01T07:23:57;2.10;;;1.40;;
64037;SDS011;54641;50.168;8.492;2022-07-01T07:26:28;4.20;;;1.80;;
64037;SDS011;54641;50.168;8.492;2022-07-01T07:28:58;2.50;;;1.30;;
64037;SDS011;54641;50.168;8.492;2022-07-01T07:31:29;2.10;;;1.30;;
64037;SDS011;54641;50.168;8.492;2022-07-01T07:33:59;2.90;;;1.60;;
64037;SDS011;54641;50.168;8.492;2022-07-01T07:36:31;3.30;;;1.40;;
64037;SDS011;54641;50.168;8.492;2022-07-01T07:39:01;5.50;;;1.50;;
64037;SDS011;54641;50.168;8.492;2022-07-01T07:41:32;3.50;;;1.70;;
64037;SDS011;54641;50.168;8.492;2022-07-01T07:44:03;3.30;;;1.60;;
64037;SDS011;54641;50.168;8.492;2022-07-01T07:46:33;3.70;;;1.50;;
64037;SDS011;54641;50.168;8.492;2022-07-01T07:49:04;1.90;;;1.10;;
64037;SDS011;54641;50.168;8.492;2022-07-01T07:51:35;3.60;;;1.50;;
64037;SDS011;54641;50.168;8.492;2022-07-01T07:54:06;4.20;;;1.50;;
64037;SDS011;54641;50.168;8.492;2022-07-01T07:56:36;5.50;;;1.50;;
64037;SDS011;54641;50.168;8.492;2022-07-01T07:59:12;3.20;;;1.50;;
64037;SDS011;54641;50.168;8.492;2022-07-01T08:01:42;3.90;;;1.60;;
64037;SDS011;54641;50.168;8.492;2022-07-01T08:04:13;2.60;;;1.10;;
64037;SDS011;54641;50.168;8.492;2022-07-01T08:06:44;3.50;;;1.30;;
64037;SDS011;54641;50.168;8.492;2022-07-01T08:09:14;4.10;;;1.50;;
64037;SDS011;54641;50.168;8.492;2022-07-01T08:11:46;3.90;;;1.50;;
64037;SDS011;54641;50.168;8.492;2022-07-01T08:14:17;5.00;;;1.90;;
64037;SDS011;54641;50.168;8.492;2022-07-01T08:16:50;3.10;;;1.70;;
64037;SDS011;54641;50.168;8.492;2022-07-01T08:19:21;3.40;;;1.80;;
64037;SDS011;54641;50.168;8.492;2022-07-01T08:21:51;4.10;;;1.70;;
64037;SDS011;54641;50.168;8.492;2022-07-01T08:24:22;3.70;;;1.40;;
64037;SDS011;54641;50.168;8.492;2022-07-01T08:26:52;4.60;;;1.50;;
64037;SDS011;54641;50.168;8.492;2022-07-01T08:29:23;3.50;;;1.60;;
64037;SDS011;54641;50.168;8.492;2022-07-01T08:31:53;3.00;;;1.50;;
64037;SDS011;54641;50.168;8.492;2022-07-01T08:34:24;2.70;;;1.60;;
64037;SDS011;54641;50.168;8.492;2022-07-01T08:36:54;3.30;;;1.50;;
64037;SDS011;54641;50.168;8.492;2022-07-01T08:39:25;3.50;;;1.90;;
64037;SDS011;54641;50.168;8.492;2022-07-01T08:41:55;4.60;;;2.00;;
64037;SDS011;54641;50.168;8.492;2022-07-01T08:44:26;2.80;;;1.70;;
64037;SDS011;54641;50.168;8.492;2022-07-01T08:46:56;3.90;;;1.80;;
64037;SDS011;54641;50.168;8.492;2022-07-01T08:49:27;3.60;;;1.40;;
64037;SDS011;54641;50.168;8.492;2022-07-01T08:51:57;5.30;;;1.70;;
64037;SDS011;54641;50.168;8.492;2022-07-01T08:54:28;4.40;;;1.60;;
64037;SDS011;54641;50.168;8.492;2022-07-01T08:56:59;3.00;;;1.90;;
64037;SDS011;54641;50.168;8.492;2022-07-01T08:59:29;3.90;;;1.90;;
64037;SDS011;54641;50.168;8.492;2022-07-01T09:02:00;3.30;;;1.90;;
64037;SDS011;54641;50.168;8.492;2022-07-01T09:04:32;3.70;;;1.70;;
64037;SDS011;54641;50.168;8.492;2022-07-01T09:07:04;4.60;;;1.70;;
64037;SDS011;54641;50.168;8.492;2022-07-01T09:09:36;3.00;;;1.70;;
64037;SDS011;54641;50.168;8.492;2022-07-01T09:12:10;3.60;;;1.60;;
64037;SDS011;54641;50.168;8.492;2022-07-01T09:14:40;4.70;;;1.90;;
64037;SDS011;54641;50.168;8.492;2022-07-01T09:17:11;3.70;;;1.80;;
64037;SDS011;54641;50.168;8.492;2022-07-01T09:19:49;3.70;;;1.70;;
64037;SDS011;54641;50.168;8.492;2022-07-01T09:22:19;3.00;;;1.40;;
64037;SDS011;54641;50.168;8.492;2022-07-01T09:24:50;2.20;;;1.50;;
64037;SDS011;54641;50.168;8.492;2022-07-01T09:27:23;4.90;;;1.80;;
64037;SDS011;54641;50.168;8.492;2022-07-01T09:29:55;2.90;;;1.70;;
64037;SDS011;54641;50.168;8.492;2022-07-01T09:32:26;3.50;;;1.90;;
64037;SDS011;54641;50.168;8.492;2022-07-01T09:34:57;3.20;;;1.70;;
64037;SDS011;54641;50.168;8.492;2022-07-01T09:37:27;4.60;;;1.70;;
64037;SDS011;54641;50.168;8.492;2022-07-01T09:39:59;3.00;;;1.80;;
64037;SDS011;54641;50.168;8.492;2022-07-01T09:42:31;3.30;;;1.80;;
64037;SDS011;54641;50.168;8.492;2022-07-01T09:45:03;2.90;;;1.60;;
64037;SDS011;54641;50.168;8.492;2022-07-01T09:47:39;2.90;;;1.60;;
64037;SDS011;54641;50.168;8.492;2022-07-01T09:50:11;6.80;;;2.10;;
64037;SDS011;54641;50.168;8.492;2022-07-01T09:52:42;3.80;;;1.70;;
64037;SDS011;54641;50.168;8.492;2022-07-01T09:55:12;2.40;;;1.60;;
64037;SDS011;54641;50.168;8.492;2022-07-01T09:57:43;3.90;;;2.10;;
64037;SDS011;54641;50.168;8.492;2022-07-01T10:00:14;2.30;;;1.50;;
64037;SDS011;54641;50.168;8.492;2022-07-01T10:02:44;5.80;;;2.20;;
64037;SDS011;54641;50.168;8.492;2022-07-01T10:05:17;3.90;;;1.70;;
64037;SDS011;54641;50.168;8.492;2022-07-01T10:07:52;1.90;;;1.40;;
64037;SDS011;54641;50.168;8.492;2022-07-01T10:10:34;3.30;;;1.80;;
64037;SDS011;54641;50.168;8.492;2022-07-01T10:13:11;2.70;;;1.70;;
64037;SDS011;54641;50.168;8.492;2022-07-01T10:18:22;3.40;;;1.80;;
64037;SDS011;54641;50.168;8.492;2022-07-01T10:20:54;3.00;;;1.40;;
64037;SDS011;54641;50.168;8.492;2022-07-01T10:23:27;3.80;;;1.60;;
64037;SDS011;54641;50.168;8.492;2022-07-01T10:26:05;3.50;;;1.40;;
64037;SDS011;54641;50.168;8.492;2022-07-01T10:28:41;2.70;;;1.30;;
64037;SDS011;54641;50.168;8.492;2022-07-01T10:31:14;3.30;;;1.30;;
64037;SDS011;54641;50.168;8.492;2022-07-01T10:33:46;3.20;;;1.50;;
64037;SDS011;54641;50.168;8.492;2022-07-01T10:36:24;2.80;;;1.30;;
64037;SDS011;54641;50.168;8.492;2022-07-01T10:39:09;2.10;;;1.60;;
64037;SDS011;54641;50.168;8.492;2022-07-01T10:41:58;4.10;;;1.60;;
64037;SDS011;54641;50.168;8.492;2022-07-01T10:47:31;3.30;;;2.10;;
64037;SDS011;54641;50.168;8.492;2022-07-01T10:50:06;2.20;;;1.40;;
64037;SDS011;54641;50.168;8.492;2022-07-01T10:52:38;2.70;;;1.20;;
64037;SDS011;54641;50.168;8.492;2022-07-01T10:55:10;1.50;;;1.10;;
64037;SDS011;54641;50.168;8.492;2022-07-01T10:57:40;3.20;;;1.30;;
64037;SDS011;54641;50.168;8.492;2022-07-01T11:00:28;2.20;;;1.20;;
64037;SDS011;54641;50.168;8.492;2022-07-01T11:05:50;2.20;;;1.30;;
64037;SDS011;54641;50.168;8.492;2022-07-01T11:08:23;3.20;;;1.20;;
64037;SDS011;54641;50.168;8.492;2022-07-01T11:10:58;2.60;;;1.40;;
64037;SDS011;54641;50.168;8.492;2022-07-01T11:13:31;2.20;;;1.20;;
64037;SDS011;54641;50.168;8.492;2022-07-01T11:16:02;2.70;;;1.30;;
64037;SDS011;54641;50.168;8.492;2022-07-01T11:18:34;3.80;;;1.30;;
64037;SDS011;54641;50.168;8.492;2022-07-01T11:21:05;3.30;;;1.40;;
64037;SDS011;54641;50.168;8.492;2022-07-01T11:23:37;3.10;;;1.20;;
64037;SDS011;54641;50.168;8.492;2022-07-01T11:26:20;2.70;;;1.30;;
64037;SDS011;54641;50.168;8.492;2022-07-01T11:28:52;3.40;;;1.40;;
64037;SDS011;54641;50.168;8.492;2022-07-01T11:31:29;3.50;;;1.60;;
64037;SDS011;54641;50.168;8.492;2022-07-01T11:34:01;2.80;;;1.30;;
64037;SDS011;54641;50.168;8.492;2022-07-01T11:36:32;2.00;;;1.20;;
64037;SDS011;54641;50.168;8.492;2022-07-01T11:39:20;3.40;;;1.40;;
64037;SDS011;54641;50.168;8.492;2022-07-01T11:41:53;2.60;;;1.30;;
64037;SDS011;54641;50.168;8.492;2022-07-01T11:44:34;2.30;;;1.30;;
64037;SDS011;54641;50.168;8.492;2022-07-01T11:47:06;2.40;;;1.50;;
64037;SDS011;54641;50.168;8.492;2022-07-01T11:49:46;3.70;;;1.20;;
64037;SDS011;54641;50.168;8.492;2022-07-01T11:52:17;4.40;;;1.60;;
64037;SDS011;54641;50.168;8.492;2022-07-01T11:54:50;3.10;;;1.50;;
64037;SDS011;54641;50.168;8.492;2022-07-01T11:57:40;2.30;;;1.40;;
64037;SDS011;54641;50.168;8.492;2022-07-01T12:00:12;3.20;;;1.50;;
64037;SDS011;54641;50.168;8.492;2022-07-01T12:02:50;3.00;;;1.50;;
64037;SDS011;54641;50.168;8.492;2022-07-01T12:05:21;3.20;;;1.90;;
64037;SDS011;54641;50.168;8.492;2022-07-01T12:07:51;2.90;;;1.60;;
64037;SDS011;54641;50.168;8.492;2022-07-01T12:10:24;4.80;;;1.80;;
64037;SDS011;54641;50.168;8.492;2022-07-01T12:12:54;3.70;;;1.70;;
64037;SDS011;54641;50.168;8.492;2022-07-01T12:15:25;1.60;;;1.30;;
64037;SDS011;54641;50.168;8.492;2022-07-01T12:18:05;5.00;;;1.40;;
64037;SDS011;54641;50.168;8.492;2022-07-01T12:20:36;3.70;;;1.40;;
64037;SDS011;54641;50.168;8.492;2022-07-01T12:23:13;2.30;;;1.40;;
64037;SDS011;54641;50.168;8.492;2022-07-01T12:25:47;2.00;;;1.20;;
64037;SDS011;54641;50.168;8.492;2022-07-01T12:31:09;3.20;;;1.20;;
64037;SDS011;54641;50.168;8.492;2022-07-01T12:33:48;2.20;;;1.40;;
64037;SDS011;54641;50.168;8.492;2022-07-01T12:36:19;2.20;;;1.40;;
64037;SDS011;54641;50.168;8.492;2022-07-01T12:39:00;4.00;;;1.40;;
64037;SDS011;54641;50.168;8.492;2022-07-01T12:41:33;3.10;;;1.40;;
64037;SDS011;54641;50.168;8.492;2022-07-01T12:44:19;3.50;;;1.40;;
64037;SDS011;54641;50.168;8.492;2022-07-01T12:46:50;3.20;;;1.60;;
64037;SDS011;54641;50.168;8.492;2022-07-01T12:49:22;2.80;;;1.30;;
64037;SDS011;54641;50.168;8.492;2022-07-01T12:51:53;2.80;;;1.50;;
64037;SDS011;54641;50.168;8.492;2022-07-01T12:54:30;2.10;;;1.50;;
64037;SDS011;54641;50.168;8.492;2022-07-01T12:57:02;2.70;;;1.50;;
64037;SDS011;54641;50.168;8.492;2022-07-01T12:59:33;2.70;;;1.40;;
64037;SDS011;54641;50.168;8.492;2022-07-01T13:02:04;3.20;;;1.30;;
64037;SDS011;54641;50.168;8.492;2022-07-01T13:04:34;2.20;;;1.40;;
64037;SDS011;54641;50.168;8.492;2022-07-01T13:07:06;4.20;;;1.40;;
64037;SDS011;54641;50.168;8.492;2022-07-01T13:09:36;2.30;;;1.40;;
64037;SDS011;54641;50.168;8.492;2022-07-01T13:12:07;2.60;;;1.40;;
64037;SDS011;54641;50.168;8.492;2022-07-01T13:14:38;2.90;;;1.30;;
64037;SDS011;54641;50.168;8.492;2022-07-01T13:17:08;4.40;;;1.50;;
64037;SDS011;54641;50.168;8.492;2022-07-01T13:19:39;4.00;;;1.60;;
64037;SDS011;54641;50.168;8.492;2022-07-01T13:22:10;2.50;;;1.40;;
64037;SDS011;54641;50.168;8.492;2022-07-01T13:24:40;4.50;;;1.20;;
64037;SDS011;54641;50.168;8.492;2022-07-01T13:27:11;2.80;;;1.30;;
64037;SDS011;54641;50.168;8.492;2022-07-01T13:29:41;3.00;;;1.30;;
64037;SDS011;54641;50.168;8.492;2022-07-01T13:32:12;2.80;;;1.60;;
64037;SDS011;54641;50.168;8.492;2022-07-01T13:34:43;1.80;;;1.40;;
64037;SDS011;54641;50.168;8.492;2022-07-01T13:37:13;2.00;;;1.40;;
64037;SDS011;54641;50.168;8.492;2022-07-01T13:39:44;1.80;;;1.30;;
64037;SDS011;54641;50.168;8.492;2022-07-01T13:42:15;3.20;;;1.60;;
64037;SDS011;54641;50.168;8.492;2022-07-01T13:44:45;3.00;;;1.40;;
64037;SDS011;54641;50.168;8.492;2022-07-01T13:47:17;2.80;;;1.50;;
64037;SDS011;54641;50.168;8.492;2022-07-01T13:49:47;2.50;;;1.40;;
64037;SDS011;54641;50.168;8.492;2022-07-01T13:52:17;1.40;;;1.10;;
64037;SDS011;54641;50.168;8.492;2022-07-01T13:54:48;5.10;;;1.40;;
64037;SDS011;54641;50.168;8.492;2022-07-01T13:57:18;3.60;;;1.20;;
64037;SDS011;54641;50.168;8.492;2022-07-01T13:59:49;1.90;;;1.00;;
64037;SDS011;54641;50.168;8.492;2022-07-01T14:02:20;1.40;;;1.10;;
64037;SDS011;54641;50.168;8.492;2022-07-01T14:04:50;3.00;;;1.10;;
64037;SDS011;54641;50.168;8.492;2022-07-01T14:07:21;2.20;;;1.00;;
64037;SDS011;54641;50.168;8.492;2022-07-01T14:09:51;2.50;;;1.00;;
64037;SDS011;54641;50.168;8.492;2022-07-01T14:12:22;2.40;;;1.60;;
64037;SDS011;54641;50.168;8.492;2022-07-01T14:14:55;2.60;;;1.30;;
64037;SDS011;54641;50.168;8.492;2022-07-01T14:17:26;3.20;;;1.30;;
64037;SDS011;54641;50.168;8.492;2022-07-01T14:19:57;2.50;;;1.60;;
64037;SDS011;54641;50.168;8.492;2022-07-01T14:22:27;3.30;;;1.60;;
64037;SDS011;54641;50.168;8.492;2022-07-01T14:24:57;3.80;;;1.80;;
64037;SDS011;54641;50.168;8.492;2022-07-01T14:27:28;2.30;;;1.30;;
64037;SDS011;54641;50.168;8.492;2022-07-01T14:29:58;4.10;;;1.50;;
64037;SDS011;54641;50.168;8.492;2022-07-01T14:32:29;4.50;;;1.30;;
64037;SDS011;54641;50.168;8.492;2022-07-01T14:34:59;2.20;;;1.30;;
64037;SDS011;54641;50.168;8.492;2022-07-01T14:37:30;4.20;;;1.60;;
64037;SDS011;54641;50.168;8.492;2022-07-01T14:40:01;3.40;;;1.30;;
64037;SDS011;54641;50.168;8.492;2022-07-01T14:42:32;2.00;;;1.00;;
64037;SDS011;54641;50.168;8.492;2022-07-01T14:45:03;3.00;;;1.40;;
64037;SDS011;54641;50.168;8.492;2022-07-01T14:47:34;3.30;;;1.30;;
64037;SDS011;54641;50.168;8.492;2022-07-01T14:50:06;4.00;;;1.40;;
64037;SDS011;54641;50.168;8.492;2022-07-01T14:52:37;1.70;;;1.20;;
64037;SDS011;54641;50.168;8.492;2022-07-01T14:55:08;1.70;;;1.30;;
64037;SDS011;54641;50.168;8.492;2022-07-01T14:57:39;4.90;;;1.30;;
64037;SDS011;54641;50.168;8.492;2022-07-01T15:00:10;2.10;;;1.40;;
64037;SDS011;54641;50.168;8.492;2022-07-01T15:02:43;2.80;;;1.50;;
64037;SDS011;54641;50.168;8.492;2022-07-01T15:05:14;1.60;;;1.20;;
64037;SDS011;54641;50.168;8.492;2022-07-01T15:07:45;2.70;;;1.30;;
64037;SDS011;54641;50.168;8.492;2022-07-01T15:10:15;3.20;;;1.40;;
64037;SDS011;54641;50.168;8.492;2022-07-01T15:12:46;3.40;;;1.50;;
64037;SDS011;54641;50.168;8.492;2022-07-01T15:15:18;1.60;;;1.10;;
64037;SDS011;54641;50.168;8.492;2022-07-01T15:17:49;2.50;;;1.30;;
64037;SDS011;54641;50.168;8.492;2022-07-01T15:20:19;8.80;;;1.40;;
64037;SDS011;54641;50.168;8.492;2022-07-01T15:22:49;2.50;;;1.10;;
64037;SDS011;54641;50.168;8.492;2022-07-01T15:25:20;1.80;;;1.10;;
64037;SDS011;54641;50.168;8.492;2022-07-01T15:27:51;3.20;;;1.20;;